Friday, December 14, 2018, 1:18 PM EST
Back to Local

KPVD, Providence Green State Airport

Location: Warwick, RI, United States Lat: 41.733
Local Time: 1:18 PM EST (18:18 GMT) Lon: -71.433
Time Zone: US/Eastern Elev: 55 ft

Show me the last for .
Show Decoded

2018-12-14 12:51 METAR KPVD 141751Z 17005KT 10SM FEW019 BKN250 07/03 A3044 RMK AO2 SLP306
                 T00720028 10078 21050 58033 =
2018-12-14 11:51 METAR KPVD 141651Z 14008KT 10SM FEW019 BKN250 07/02 A3046 RMK AO2 SLP315
                 T00720017 =
2018-12-14 10:51 METAR KPVD 141551Z 17003KT 10SM FEW040 BKN250 05/00 A3051 RMK AO2 SLP332
                 T00500000 =
2018-12-14 09:51 METAR KPVD 141451Z 00000KT 10SM SCT300 03/M01 A3053 RMK AO2 SLP340 T00331011
                 50004 =
2018-12-14 08:51 METAR KPVD 141351Z 00000KT 10SM FEW300 01/M03 A3054 RMK AO2 SLP343 T00061033 =
2018-12-14 07:51 METAR KPVD 141251Z 31003KT 10SM FEW300 M03/M05 A3053 RMK AO2 SLP337 T10281050 =
2018-12-14 06:51 METAR KPVD 141151Z 00000KT 10SM FEW007 FEW300 M04/M06 A3052 RMK AO2 SLP336
                 T10391056 11022 21056 58001 =
2018-12-14 05:51 METAR KPVD 141051Z 00000KT 10SM CLR M04/M06 A3053 RMK AO2 SLP338 T10441061 =
2018-12-14 04:51 METAR KPVD 140951Z AUTO 30003KT 10SM CLR M04/M06 A3053 RMK AO2 SLP339 T10391061
                 =
2018-12-14 03:51 METAR KPVD 140851Z AUTO 36003KT 10SM CLR M03/M06 A3053 RMK AO2 SLP337 T10331056
                 58015 =
2018-12-14 02:51 METAR KPVD 140751Z AUTO 36004KT 10SM CLR M02/M06 A3055 RMK AO2 SLP346 T10221056
                 =
2018-12-14 01:51 METAR KPVD 140651Z AUTO 35005KT 10SM FEW055 M03/M06 A3056 RMK AO2 SLP350
                 T10281056 =
2018-12-14 00:51 METAR KPVD 140551Z AUTO 35005KT 10SM CLR M02/M06 A3057 RMK AO2 SLP352 T10221056
                 10006 21028 53006 =
2018-12-13 23:51 METAR KPVD 140451Z 01005KT 10SM FEW070 M02/M05 A3056 RMK AO2 SLP347 LAST
                 T10171050 400221061 =
2018-12-13 22:51 METAR KPVD 140351Z 00000KT 10SM FEW070 M01/M05 A3056 RMK AO2 SLP347 T10061050 =
2018-12-13 21:51 METAR KPVD 140251Z 04005KT 10SM FEW070 M02/M06 A3055 RMK AO2 SLP345 T10171056
                 50000 =
2018-12-13 20:51 METAR KPVD 140151Z 06003KT 10SM BKN055 OVC075 01/M04 A3055 RMK AO2 SLP346
                 T00061044 =
2018-12-13 19:51 METAR KPVD 140051Z 09004KT 10SM FEW060 OVC070 01/M04 A3055 RMK AO2 SLP345
                 T00061044 =
2018-12-13 18:51 METAR KPVD 132351Z 11004KT 10SM OVC065 01/M05 A3055 RMK AO2 SNE37 SLP345 P0000
                 60000 T00061050 10022 20000 51007 =
2018-12-13 17:51 METAR KPVD 132251Z 11004KT 9SM -SN BKN065 OVC080 00/M06 A3055 RMK AO2 SNB32
                 SLP345 P0000 T00001056 =
2018-12-13 16:51 METAR KPVD 132151Z 12006KT 10SM FEW060 BKN085 OVC110 01/M06 A3054 RMK AO2 SLP342
                 T00061061 =
2018-12-13 15:51 METAR KPVD 132051Z 12004KT 10SM FEW030 BKN090 OVC110 01/M06 A3053 RMK AO2 SLP338
                 T00061061 53009 =
2018-12-13 14:51 METAR KPVD 131951Z 11007KT 10SM FEW030 BKN110 01/M06 A3051 RMK AO2 SLP332
                 T00111061 =
2018-12-13 13:51 METAR KPVD 131851Z 08005KT 10SM FEW030 BKN100 BKN120 02/M07 A3050 RMK AO2 SLP329
                 T00171067 =

Support USWX by starting your Amazon purchase here.